West Point, Virginia
Current Conditions -  °F | °C
As of 1:35 AM on Tuesday 21 Oct 2014 (Local Time) from KFYJ Reporting Station
Broken Clouds Broken Clouds  
Wind Chill: 60°   Ceiling: 10000
Heat Index: 60°   Visibility: 10mi
Dew Point: 49°   Wind: 0mph
Humidity: 67%   Direction: NA
Pressure: 29.95"   Gusts: NA
Location:  37.53°N, 76.8°W
Report Text: KFYJ 210535Z AUTO 00000KT 10SM SCT070 BKN100 16/10 A2995 RMK AO2 T01550095
Loading
Personal Weather Stations






























Interactive Weather Map New forecast layout! Learn more

10-Day Weather Forecast

Advertisements
Track Severe Weather on mobile